AFL1602 UWWW-UUEE
Flight info
| Callsign | AFL1602 |
|---|---|
| Flight time | 1h 36m |
| Altitude | 36000 |
| Route | REDMI2Y REDMI T173 BMK T750 OKSUD T787 OTKOL T784 LARNO T291 URIDU L158 DIMGI DIMGI3F |
| Aircraft | B738/M-SDE2E3FGHIRWXY/LB1 |
Departure
| Time | 2025-10-10 11:27 |
|---|---|
| Airport | Kurumoch International Airport (UWWW) |
Arrival
| Time | 2025-10-10 13:04 |
|---|---|
| Airport | Sheremetyevo International Airport (UUEE) |
| Time | Latitude | Longitude | Altitude | Speed | Heading |
|---|---|---|---|---|---|
| 2025-10-10 11:05 | 53.51171 | 50.15940 | 436 ft | 0 kts | 331° |
| 2025-10-10 11:16 | 53.51167 | 50.15944 | 424 ft | 2 kts | 331° |
| 2025-10-10 11:16 | 53.51138 | 50.15970 | 421 ft | 2 kts | 333° |
| 2025-10-10 11:17 | 53.51091 | 50.15976 | 426 ft | 2 kts | 335° |
| 2025-10-10 11:18 | 53.51061 | 50.16000 | 424 ft | 2 kts | 332° |
| 2025-10-10 11:18 | 53.51039 | 50.16020 | 432 ft | 0 kts | 331° |
| 2025-10-10 11:21 | 53.51044 | 50.16015 | 429 ft | 2 kts | 331° |
| 2025-10-10 11:22 | 53.51103 | 50.16013 | 431 ft | 9 kts | 40° |
| 2025-10-10 11:22 | 53.51208 | 50.16316 | 428 ft | 15 kts | 60° |
| 2025-10-10 11:23 | 53.51324 | 50.16670 | 424 ft | 18 kts | 62° |
| 2025-10-10 11:23 | 53.51390 | 50.16877 | 415 ft | 0 kts | 62° |
| 2025-10-10 11:24 | 53.51394 | 50.16888 | 420 ft | 2 kts | 61° |
| 2025-10-10 11:24 | 53.51404 | 50.16921 | 420 ft | 5 kts | 61° |
| 2025-10-10 11:25 | 53.51360 | 50.17145 | 418 ft | 0 kts | 161° |
| 2025-10-10 11:26 | 53.51132 | 50.17280 | 411 ft | 74 kts | 160° |
| 2025-10-10 11:26 | 53.50427 | 50.17700 | 410 ft | 138 kts | 160° |
| 2025-10-10 11:26 | 53.48197 | 50.19033 | 1300 ft | 183 kts | 160° |
| 2025-10-10 11:27 | 53.45852 | 50.20435 | 3085 ft | 189 kts | 161° |
| 2025-10-10 11:27 | 53.43298 | 50.21979 | 4184 ft | 208 kts | 162° |
| 2025-10-10 11:28 | 53.41865 | 50.22517 | 4915 ft | 213 kts | 184° |
| 2025-10-10 11:28 | 53.38851 | 50.17091 | 6955 ft | 244 kts | 248° |
| 2025-10-10 11:29 | 53.37367 | 50.08884 | 9367 ft | 253 kts | 270° |
| 2025-10-10 11:30 | 53.39064 | 50.03822 | 10846 ft | 267 kts | 327° |
| 2025-10-10 11:30 | 53.40771 | 50.02536 | 11589 ft | 271 kts | 338° |
| 2025-10-10 11:30 | 53.44370 | 50.00446 | 13107 ft | 276 kts | 339° |
| 2025-10-10 11:31 | 53.48015 | 49.98321 | 14522 ft | 281 kts | 339° |
| 2025-10-10 11:31 | 53.51746 | 49.96088 | 15798 ft | 288 kts | 338° |
| 2025-10-10 11:32 | 53.55550 | 49.93790 | 17121 ft | 293 kts | 338° |
| 2025-10-10 11:32 | 53.59625 | 49.91316 | 17574 ft | 332 kts | 338° |
| 2025-10-10 11:33 | 53.61865 | 49.89955 | 17735 ft | 352 kts | 338° |
| 2025-10-10 11:33 | 53.69314 | 49.85430 | 18315 ft | 401 kts | 339° |
| 2025-10-10 11:34 | 53.74570 | 49.82228 | 19439 ft | 405 kts | 338° |
| 2025-10-10 11:34 | 53.79206 | 49.77047 | 20453 ft | 404 kts | 306° |
| 2025-10-10 11:35 | 53.81569 | 49.68485 | 21543 ft | 404 kts | 288° |
| 2025-10-10 11:35 | 53.83430 | 49.59435 | 22542 ft | 410 kts | 287° |
| 2025-10-10 11:36 | 53.85335 | 49.50267 | 23547 ft | 414 kts | 288° |
| 2025-10-10 11:36 | 53.87280 | 49.41071 | 24349 ft | 419 kts | 288° |
| 2025-10-10 11:38 | 53.95617 | 49.03303 | 27256 ft | 438 kts | 300° |
| 2025-10-10 11:40 | 54.09268 | 48.68073 | 29792 ft | 452 kts | 301° |
| 2025-10-10 11:42 | 54.22655 | 48.32401 | 32569 ft | 443 kts | 301° |
| 2025-10-10 11:44 | 54.34868 | 47.98036 | 34653 ft | 441 kts | 298° |
| 2025-10-10 11:46 | 54.47383 | 47.61633 | 36055 ft | 447 kts | 298° |
| 2025-10-10 11:48 | 54.59810 | 47.24972 | 36060 ft | 440 kts | 298° |
| 2025-10-10 11:50 | 54.72052 | 46.88073 | 36050 ft | 447 kts | 297° |
| 2025-10-10 11:52 | 54.84924 | 46.50788 | 36037 ft | 455 kts | 306° |
| 2025-10-10 11:54 | 55.00645 | 46.16293 | 36024 ft | 454 kts | 306° |
| 2025-10-10 11:56 | 55.16063 | 45.81629 | 36024 ft | 450 kts | 306° |
| 2025-10-10 11:58 | 55.31348 | 45.46782 | 36010 ft | 453 kts | 305° |
| 2025-10-10 12:00 | 55.46675 | 45.11338 | 36006 ft | 458 kts | 305° |
| 2025-10-10 12:02 | 55.57436 | 44.72053 | 36003 ft | 450 kts | 270° |
| 2025-10-10 12:04 | 55.58250 | 44.33268 | 35985 ft | 452 kts | 270° |
| 2025-10-10 12:06 | 55.59373 | 43.83443 | 35967 ft | 451 kts | 276° |
| 2025-10-10 12:08 | 55.70631 | 43.43605 | 35967 ft | 456 kts | 298° |
| 2025-10-10 12:10 | 55.80379 | 43.02904 | 35961 ft | 449 kts | 273° |
| 2025-10-10 12:12 | 55.82730 | 42.58552 | 35946 ft | 451 kts | 273° |
| 2025-10-10 12:14 | 55.85052 | 42.14124 | 35933 ft | 451 kts | 273° |
| 2025-10-10 12:16 | 55.86695 | 41.69783 | 35931 ft | 447 kts | 264° |
| 2025-10-10 12:18 | 55.85157 | 41.25680 | 35913 ft | 446 kts | 264° |
| 2025-10-10 12:20 | 55.83625 | 40.81778 | 35560 ft | 450 kts | 263° |
| 2025-10-10 12:22 | 55.81885 | 40.37479 | 30607 ft | 439 kts | 262° |
| 2025-10-10 12:24 | 55.80072 | 39.95769 | 26591 ft | 408 kts | 262° |
| 2025-10-10 12:26 | 55.77859 | 39.57516 | 24718 ft | 391 kts | 259° |
| 2025-10-10 12:27 | 55.77226 | 39.47968 | 24257 ft | 387 kts | 259° |
| 2025-10-10 12:27 | 55.76588 | 39.38515 | 23847 ft | 383 kts | 258° |
| 2025-10-10 12:28 | 55.75941 | 39.29231 | 23633 ft | 376 kts | 258° |
| 2025-10-10 12:28 | 55.75615 | 39.24650 | 23545 ft | 380 kts | 258° |
| 2025-10-10 12:29 | 55.74615 | 39.10631 | 23211 ft | 380 kts | 258° |
| 2025-10-10 12:29 | 55.73951 | 39.01379 | 22999 ft | 378 kts | 258° |
| 2025-10-10 12:30 | 55.73342 | 38.92139 | 22701 ft | 381 kts | 264° |
| 2025-10-10 12:30 | 55.73779 | 38.82641 | 21899 ft | 385 kts | 272° |
| 2025-10-10 12:31 | 55.74344 | 38.73265 | 21126 ft | 379 kts | 271° |
| 2025-10-10 12:31 | 55.74808 | 38.64034 | 20373 ft | 371 kts | 271° |
| 2025-10-10 12:32 | 55.75044 | 38.59493 | 20001 ft | 368 kts | 275° |
| 2025-10-10 12:32 | 55.77247 | 38.51374 | 19843 ft | 374 kts | 303° |
| 2025-10-10 12:33 | 55.81794 | 38.40261 | 19809 ft | 357 kts | 302° |
| 2025-10-10 12:33 | 55.84201 | 38.34357 | 19470 ft | 352 kts | 304° |
| 2025-10-10 12:34 | 55.87196 | 38.27524 | 18817 ft | 352 kts | 306° |
| 2025-10-10 12:34 | 55.90189 | 38.20691 | 18159 ft | 348 kts | 305° |
| 2025-10-10 12:35 | 55.93124 | 38.13918 | 17437 ft | 343 kts | 305° |
| 2025-10-10 12:35 | 55.96011 | 38.07219 | 16777 ft | 337 kts | 304° |
| 2025-10-10 12:36 | 55.98840 | 38.00633 | 16140 ft | 331 kts | 304° |
| 2025-10-10 12:36 | 56.00177 | 37.97312 | 15813 ft | 326 kts | 294° |
| 2025-10-10 12:37 | 56.01642 | 37.85961 | 15242 ft | 313 kts | 276° |
| 2025-10-10 12:37 | 56.02637 | 37.78894 | 14851 ft | 326 kts | 296° |
| 2025-10-10 12:38 | 56.06188 | 37.73870 | 14344 ft | 335 kts | 334° |
| 2025-10-10 12:38 | 56.10446 | 37.70472 | 13753 ft | 338 kts | 334° |
| 2025-10-10 12:39 | 56.14945 | 37.68612 | 13109 ft | 334 kts | 4° |
| 2025-10-10 12:39 | 56.19534 | 37.69387 | 12501 ft | 328 kts | 6° |
| 2025-10-10 12:40 | 56.21789 | 37.69777 | 12222 ft | 324 kts | 5° |
| 2025-10-10 12:40 | 56.26253 | 37.70481 | 11669 ft | 318 kts | 5° |
| 2025-10-10 12:41 | 56.32130 | 37.67058 | 10862 ft | 301 kts | 308° |
| 2025-10-10 12:41 | 56.34758 | 37.61291 | 10351 ft | 295 kts | 306° |
| 2025-10-10 12:42 | 56.37352 | 37.55601 | 9849 ft | 292 kts | 306° |
| 2025-10-10 12:42 | 56.39607 | 37.49717 | 9528 ft | 278 kts | 298° |
| 2025-10-10 12:43 | 56.41660 | 37.43982 | 9236 ft | 266 kts | 299° |
| 2025-10-10 12:43 | 56.43158 | 37.38186 | 9039 ft | 248 kts | 269° |
| 2025-10-10 12:44 | 56.43248 | 37.35102 | 9033 ft | 246 kts | 267° |
| 2025-10-10 12:44 | 56.43408 | 37.28790 | 8850 ft | 253 kts | 268° |
| 2025-10-10 12:45 | 56.42995 | 37.19503 | 8461 ft | 239 kts | 239° |
| 2025-10-10 12:45 | 56.41523 | 37.14130 | 8226 ft | 239 kts | 239° |
| 2025-10-10 12:46 | 56.39324 | 37.10073 | 7989 ft | 227 kts | 194° |
| 2025-10-10 12:46 | 56.36326 | 37.10894 | 7776 ft | 229 kts | 148° |
| 2025-10-10 12:47 | 56.33903 | 37.14697 | 7558 ft | 233 kts | 140° |
| 2025-10-10 12:47 | 56.31534 | 37.18716 | 7323 ft | 234 kts | 140° |
| 2025-10-10 12:48 | 56.30343 | 37.20713 | 7204 ft | 235 kts | 140° |
| 2025-10-10 12:48 | 56.27933 | 37.24711 | 6969 ft | 235 kts | 141° |
| 2025-10-10 12:49 | 56.24150 | 37.29812 | 6627 ft | 222 kts | 164° |
| 2025-10-10 12:49 | 56.21161 | 37.31277 | 6423 ft | 223 kts | 167° |
| 2025-10-10 12:50 | 56.18138 | 37.32464 | 6184 ft | 225 kts | 185° |
| 2025-10-10 12:50 | 56.15554 | 37.29564 | 5969 ft | 230 kts | 236° |
| 2025-10-10 12:51 | 56.14564 | 37.24066 | 5741 ft | 236 kts | 252° |
| 2025-10-10 12:51 | 56.14185 | 37.21204 | 5621 ft | 236 kts | 252° |
| 2025-10-10 12:52 | 56.13402 | 37.15488 | 5393 ft | 235 kts | 252° |
| 2025-10-10 12:52 | 56.12597 | 37.09808 | 5150 ft | 234 kts | 251° |
| 2025-10-10 12:53 | 56.10248 | 37.02788 | 4812 ft | 219 kts | 212° |
| 2025-10-10 12:53 | 56.07707 | 36.99884 | 4593 ft | 216 kts | 211° |
| 2025-10-10 12:54 | 56.05183 | 36.96984 | 4372 ft | 214 kts | 211° |
| 2025-10-10 12:54 | 56.02698 | 36.94099 | 4148 ft | 208 kts | 211° |
| 2025-10-10 12:55 | 56.00289 | 36.91424 | 3965 ft | 204 kts | 198° |
| 2025-10-10 12:55 | 55.97669 | 36.92312 | 3781 ft | 192 kts | 149° |
| 2025-10-10 12:56 | 55.96579 | 36.93658 | 3661 ft | 189 kts | 147° |
| 2025-10-10 12:56 | 55.94438 | 36.96360 | 3501 ft | 186 kts | 148° |
| 2025-10-10 12:57 | 55.91650 | 37.00542 | 3192 ft | 174 kts | 105° |
| 2025-10-10 12:57 | 55.91882 | 37.04704 | 3064 ft | 174 kts | 88° |
| 2025-10-10 12:58 | 55.92275 | 37.08782 | 2887 ft | 160 kts | 81° |
| 2025-10-10 12:58 | 55.92818 | 37.12637 | 2737 ft | 162 kts | 79° |
| 2025-10-10 12:59 | 55.93390 | 37.16467 | 2545 ft | 157 kts | 79° |
| 2025-10-10 12:59 | 55.93961 | 37.20200 | 2492 ft | 153 kts | 78° |
| 2025-10-10 13:00 | 55.94249 | 37.22018 | 2490 ft | 152 kts | 79° |
| 2025-10-10 13:00 | 55.94797 | 37.25692 | 2157 ft | 151 kts | 80° |
| 2025-10-10 13:01 | 55.95575 | 37.30966 | 1555 ft | 144 kts | 79° |
| 2025-10-10 13:01 | 55.96088 | 37.34347 | 1110 ft | 136 kts | 78° |
| 2025-10-10 13:02 | 55.96554 | 37.37547 | 814 ft | 137 kts | 76° |
| 2025-10-10 13:02 | 55.97011 | 37.40613 | 640 ft | 93 kts | 75° |
| 2025-10-10 13:03 | 55.97206 | 37.41910 | 643 ft | 32 kts | 75° |
| 2025-10-10 13:03 | 55.97261 | 37.42281 | 645 ft | 29 kts | 75° |
| 2025-10-10 13:04 | 55.97352 | 37.42889 | 641 ft | 21 kts | 73° |
| 2025-10-10 13:04 | 55.97434 | 37.42941 | 640 ft | 5 kts | 335° |
| 2025-10-10 13:05 | 55.97651 | 37.42835 | 637 ft | 15 kts | 345° |
| 2025-10-10 13:05 | 55.97688 | 37.42817 | 640 ft | 0 kts | 345° |